AirNav   TITAN Aviation Fuels
 
 820 users online  

WA87 Parkside Airpark
Battle Ground, Washington, USA

GOING TO BATTLE GROUND?


FAA INFORMATION EFFECTIVE 20 MAY 2021

Location

FAA Identifier: WA87
Lat/Long: 45-48-57.4130N 122-33-10.3550W
45-48.956883N 122-33.172583W
45.8159481,-122.5528764
(estimated)
Elevation: 275 ft. / 84 m (estimated)
Variation: 20E (1985)
From city: 2 miles N of BATTLE GROUND, WA
Time zone: UTC -7 (UTC -8 during Standard Time)
Zip code: 98604

Airport Operations

Airport use: Private use. Permission required prior to landing
Activation date: 09/1973
Control tower: no
ARTCC: SEATTLE CENTER
FSS: SEATTLE FLIGHT SERVICE STATION
Attendance: UNATNDD
Wind indicator: yes
Segmented circle: no

Airport Communications

WX ASOS at VUO (13 nm S): 135.125 (360-696-1280)
WX ASOS at SPB (13 nm W): 135.875 (503-543-6401)
WX ASOS at PDX (14 nm S): PHONE (503) 493-7687
WX ASOS at TTD (17 nm S): 135.625 (503-492-2887)

Nearby radio navigation aids

VOR radial/distance  VOR name  Freq  Var
BTGr001/4.4BATTLE GROUND VORTAC116.6021E
UBGr012/33.0NEWBERG VOR/DME117.4021E

 
NDB name  Hdg/Dist  Freq  Var  ID
BANKS046/23.535616EPND .--. -. -..

Airport Services

Airframe service: NONE
Powerplant service: NONE

Runway Information

Runway E/W

Dimensions: 2100 x 25 ft. / 640 x 8 m
ADD'L 50' TURF ON NORTH SIDE OF RY.
Surface: asphalt
RUNWAY E  RUNWAY W
Traffic pattern: leftright
Obstructions: none120 ft. trees, 1000 ft. from runway

Airport Ownership and Management from official FAA records

Ownership: Privately-owned
Owner: PARKSIDE AIRPARK OWNERS ASSOC
11818 NE 266TH ST.
BATTLE GROUND, WA 98604
Phone (360) 687-5904
Manager: PARKSIDE AIRPARK HOA
11818 NE 266TH ST.
BATTLE GROUND, WA 98604
Phone (360) 687-5904

Airport Operational Statistics

Aircraft based on the field: 21
Single engine airplanes: 21
    

Additional Remarks

AIRCRAFT SHOULD FLY RIGHT PATTERN WHEN LANDING EAST. CAUTION: AIRCRAFT OPERATING TO GOHEEN AIRPORT (W52) 1.2 NM WEST: AIRCRAFT OPERATING TO BOTH AIRPORTS SHOULD MONITOR AND ANNOUNCE ON CTAF 122.9. ADDITIONAL E/W TURF RUNWAY ON NORTH SIDE OF PAVED RUNWAY.
FOR CD CTC PORTLAND APCH AT 503-493-7545.

Instrument Procedures

There are no published instrument procedures at WA87.

Some nearby airports with instrument procedures:

KVUO - Pearson Field Airport (13 nm S)
KSPB - Scappoose Industrial Airpark (13 nm W)
KPDX - Portland International Airport (14 nm S)
KTTD - Portland-Troutdale Airport (17 nm S)
KKLS - Southwest Washington Regional Airport (23 nm NW)
 
Loc | Ops | Rwys | IFR | FBO | Links
Com | Nav | Svcs | Stats | Notes
Area around WA87 (Parkside Airpark)
 
Road maps at: MapQuest Bing Google
 
Aerial photo
WARNING: Photo may not be current or correct
Aerial photo of WA87 (Parkside Airpark)
Do you have a better or more recent aerial photo of Parkside Airpark that you would like to share? If so, please send us your photo.

 
Sectional chart

 
Airport distance calculator
Flying to Parkside Airpark? Find the distance to fly.

From to WA87

Sunrise and sunset
Times for 13-Jun-2021
 Local
(UTC-7)
 Zulu
(UTC)
Morning civil twilight04:4211:42
Sunrise05:2112:21
Sunset21:0004:00
Evening civil twilight21:3804:38

Current date and time
Zulu (UTC)  14-Jun-2021 03:28:45
Local (UTC-7)  13-Jun-2021 20:28:45
 
METAR
KVUO 
13nm S 
140253Z AUTO 00000KT 10SM -RA SCT032 BKN043 OVC100 18/15 A2992 RMK AO2 RAB0158 SLP132 P0002 60005 T01780150 53002
KSPB 
13nm W 
140307Z AUTO 00000KT 10SM SCT016 OVC050 18/16 A2992 RMK AO2 T01780161
KPDX 
14nm S 
140253Z 16004KT 10SM -RA FEW007 BKN045 OVC100 18/16 A2993 RMK AO2 SLP135 P0005 60012 T01780156 53002
KTTD 
17nm S 
140308Z 13003KT 10SM -RA BKN024 OVC100 17/16 A2992 RMK AO2 P0001 T01720156
KHIO 
23nm SW 
140253Z 19004KT 10SM SCT008 BKN049 OVC110 17/16 A2992 RMK AO2 RAE0157 SLP132 P0000 60005 T01720156 55001
KKLS 
23nm NW 
140256Z AUTO 00000KT 10SM FEW028 OVC100 17/16 A2993 RMK AO2 SLP140 60012 T01670156 53003
TAF
KPDX 
14nm S 
140003Z 1400/1424 23005KT 4SM RA VCTS BKN015CB OVC025 FM140100 VRB03KT 5SM -SHRA SCT015 OVC030 FM142000 09004KT P6SM VCSH SCT030 BKN040
KTTD 
17nm S 
140002Z 1400/1424 26003KT 4SM TSRA BKN015CB OVC025 FM140100 VRB03KT 5SM -RA BKN015 OVC030 FM140400 VRB03KT P6SM -SHRA BKN015 OVC030 FM141800 VRB03KT P6SM -SHRA SCT015 OVC030 FM142000 09004KT P6SM VCSH SCT030 BKN040
NOTAMs
Click for the latest NOTAMs
NOTAMs are issued by the DoD/FAA and will open in a separate window not controlled by AirNav.

 

 
 

Would you like to see your business listed on this page?

 If your business provides an interesting product or service to pilots, flight crews, aircraft, or users of the Parkside Airpark, you should consider listing it here.  To start the listing process, click on the button below
 
Add a business
 

Other Pages about Parkside Airpark

Update a link
 
Copyright © AirNav, LLC. All rights reserved. Privacy Policy  Contact